Pagina principale
METAR-TAF:

METAR-TAF

Aeroporti :

Dübendorf, Svizzera

latitudine: 47-23-55N, longitudine: 8-38-53E, altezza: 448 m

Osservazione

Il bollettino è stato emesso 20 minuti fa, alle 12:50 UTC
Vento 3 kt da sud/sud-est, variando fra est/sud-est e sud
Temperature 2°C
Umidità 93%
Pressione 1020 hPa
Visibilità: 6000 m
Nubi sparse ad un'altezza di 200 ft

METAR: LSMD 061250Z 15003KT 110V190 6000 SCT002 02/01 Q1020 RMK WHT

Ora: 14:10 (13:10 UTC)


TAF: mancante

Osservazioni e previsioni meteorologiche di più di 4000 aeroporti (messaggi METAR e TAF).

Le stazioni disponibili sono rappresentate dai dischi gialli e rossi sulla carta.

Puntare il mouse per vedere il nome della stazione.

Clicca sopra per visualizzare le osservazioni e previsioni meteorologiche.

Per cambiare la mappa : fare clic sui pulsanti verdi con una croce nera per ingrandire, il pulsante verde con un trattino per diminuire, o sulla freccia verde per le mappe adiacenti.


METAR-TAF: